sensor_id;sensor_type;location;lat;lon;timestamp;pressure;altitude;pressure_sealevel;temperature;humidity
25526;BME280;13424;48.424;11.258;2023-06-10T00:02:11;95253.13;;;20.50;66.24
25526;BME280;13424;48.424;11.258;2023-06-10T00:04:37;95252.22;;;19.74;67.82
25526;BME280;13424;48.424;11.258;2023-06-10T00:10:38;95250.22;;;20.24;67.05
25526;BME280;13424;48.424;11.258;2023-06-10T00:13:04;95250.09;;;20.29;66.85
25526;BME280;13424;48.424;11.258;2023-06-10T00:15:33;95260.00;;;20.34;66.90
25526;BME280;13424;48.424;11.258;2023-06-10T00:17:59;95257.59;;;20.32;66.91
25526;BME280;13424;48.424;11.258;2023-06-10T00:20:26;95250.72;;;20.04;67.83
25526;BME280;13424;48.424;11.258;2023-06-10T00:22:52;95249.53;;;20.41;66.83
25526;BME280;13424;48.424;11.258;2023-06-10T00:25:18;95247.13;;;20.40;66.54
25526;BME280;13424;48.424;11.258;2023-06-10T00:27:44;95247.03;;;20.45;66.62
25526;BME280;13424;48.424;11.258;2023-06-10T00:30:11;95248.13;;;20.21;67.23
25526;BME280;13424;48.424;11.258;2023-06-10T00:32:37;95247.28;;;20.12;67.27
25526;BME280;13424;48.424;11.258;2023-06-10T00:35:04;95246.78;;;20.10;67.45
25526;BME280;13424;48.424;11.258;2023-06-10T00:37:31;95244.44;;;20.17;67.11
25526;BME280;13424;48.424;11.258;2023-06-10T00:40:41;95242.28;;;20.05;67.75
25526;BME280;13424;48.424;11.258;2023-06-10T00:43:07;95246.91;;;20.50;66.84
25526;BME280;13424;48.424;11.258;2023-06-10T00:45:33;95251.28;;;20.15;67.35
25526;BME280;13424;48.424;11.258;2023-06-10T00:48:02;95246.69;;;20.15;67.58
25526;BME280;13424;48.424;11.258;2023-06-10T00:50:32;95250.34;;;20.19;67.72
25526;BME280;13424;48.424;11.258;2023-06-10T00:52:59;95243.97;;;20.15;67.80
25526;BME280;13424;48.424;11.258;2023-06-10T00:55:25;95244.13;;;19.96;68.41
25526;BME280;13424;48.424;11.258;2023-06-10T00:57:53;95242.59;;;20.04;68.33
25526;BME280;13424;48.424;11.258;2023-06-10T01:00:19;95239.19;;;20.21;67.77
25526;BME280;13424;48.424;11.258;2023-06-10T01:02:45;95254.06;;;20.23;67.72
25526;BME280;13424;48.424;11.258;2023-06-10T01:05:16;95250.69;;;19.59;68.99
25526;BME280;13424;48.424;11.258;2023-06-10T01:08:23;95253.75;;;20.02;68.29
25526;BME280;13424;48.424;11.258;2023-06-10T01:10:58;95251.34;;;20.01;68.64
25526;BME280;13424;48.424;11.258;2023-06-10T01:13:25;95250.13;;;20.07;68.13
25526;BME280;13424;48.424;11.258;2023-06-10T01:15:55;95252.47;;;20.22;67.83
25526;BME280;13424;48.424;11.258;2023-06-10T01:18:21;95250.47;;;19.92;68.47
25526;BME280;13424;48.424;11.258;2023-06-10T01:20:47;95254.16;;;19.96;68.44
25526;BME280;13424;48.424;11.258;2023-06-10T01:23:14;95253.78;;;19.89;68.54
25526;BME280;13424;48.424;11.258;2023-06-10T01:26:01;95253.66;;;19.94;68.19
25526;BME280;13424;48.424;11.258;2023-06-10T01:28:43;95247.53;;;20.02;68.19
25526;BME280;13424;48.424;11.258;2023-06-10T01:34:26;95246.09;;;19.60;69.95
25526;BME280;13424;48.424;11.258;2023-06-10T01:36:52;95246.56;;;19.48;70.31
25526;BME280;13424;48.424;11.258;2023-06-10T01:39:23;95253.97;;;19.56;69.90
25526;BME280;13424;48.424;11.258;2023-06-10T01:41:58;95251.03;;;19.66;69.88
25526;BME280;13424;48.424;11.258;2023-06-10T01:44:24;95255.66;;;19.66;69.55
25526;BME280;13424;48.424;11.258;2023-06-10T01:46:50;95254.47;;;19.58;69.47
25526;BME280;13424;48.424;11.258;2023-06-10T01:49:16;95263.97;;;19.69;69.21
25526;BME280;13424;48.424;11.258;2023-06-10T01:51:43;95265.09;;;19.55;69.77
25526;BME280;13424;48.424;11.258;2023-06-10T01:54:09;95264.06;;;19.50;69.90
25526;BME280;13424;48.424;11.258;2023-06-10T01:56:35;95269.72;;;19.27;70.51
25526;BME280;13424;48.424;11.258;2023-06-10T01:59:01;95266.31;;;19.35;70.33
25526;BME280;13424;48.424;11.258;2023-06-10T02:01:27;95264.84;;;19.29;70.66
25526;BME280;13424;48.424;11.258;2023-06-10T02:03:53;95264.63;;;19.39;70.44
25526;BME280;13424;48.424;11.258;2023-06-10T02:06:19;95260.22;;;19.29;70.56
25526;BME280;13424;48.424;11.258;2023-06-10T02:08:45;95264.31;;;19.27;70.82
25526;BME280;13424;48.424;11.258;2023-06-10T02:11:10;95258.09;;;19.26;71.15
25526;BME280;13424;48.424;11.258;2023-06-10T02:13:38;95262.13;;;19.29;70.72
25526;BME280;13424;48.424;11.258;2023-06-10T02:16:04;95263.81;;;19.24;70.83
25526;BME280;13424;48.424;11.258;2023-06-10T02:18:31;95262.94;;;18.88;71.98
25526;BME280;13424;48.424;11.258;2023-06-10T02:20:57;95260.72;;;19.04;71.64
25526;BME280;13424;48.424;11.258;2023-06-10T02:23:23;95262.75;;;19.12;71.58
25526;BME280;13424;48.424;11.258;2023-06-10T02:25:49;95264.75;;;18.92;72.39
25526;BME280;13424;48.424;11.258;2023-06-10T02:28:14;95254.28;;;18.58;73.24
25526;BME280;13424;48.424;11.258;2023-06-10T02:30:41;95260.63;;;18.35;74.34
25526;BME280;13424;48.424;11.258;2023-06-10T02:33:07;95258.16;;;18.52;73.79
25526;BME280;13424;48.424;11.258;2023-06-10T02:35:38;95268.53;;;18.78;73.28
25526;BME280;13424;48.424;11.258;2023-06-10T02:38:05;95257.03;;;18.86;72.85
25526;BME280;13424;48.424;11.258;2023-06-10T02:44:38;95262.13;;;19.01;72.30
25526;BME280;13424;48.424;11.258;2023-06-10T02:47:05;95271.13;;;19.10;72.00
25526;BME280;13424;48.424;11.258;2023-06-10T02:49:33;95266.53;;;19.11;71.75
25526;BME280;13424;48.424;11.258;2023-06-10T02:52:09;95272.94;;;19.15;71.49
25526;BME280;13424;48.424;11.258;2023-06-10T02:54:37;95267.16;;;18.15;75.13
25526;BME280;13424;48.424;11.258;2023-06-10T02:57:15;95268.31;;;18.88;72.58
25526;BME280;13424;48.424;11.258;2023-06-10T02:59:42;95274.25;;;19.17;71.17
25526;BME280;13424;48.424;11.258;2023-06-10T03:02:15;95278.13;;;19.11;71.35
25526;BME280;13424;48.424;11.258;2023-06-10T03:04:47;95277.56;;;19.14;71.36
25526;BME280;13424;48.424;11.258;2023-06-10T03:07:20;95274.66;;;18.97;72.33
25526;BME280;13424;48.424;11.258;2023-06-10T03:09:47;95279.75;;;18.85;72.60
25526;BME280;13424;48.424;11.258;2023-06-10T03:12:14;95278.75;;;18.94;72.19
25526;BME280;13424;48.424;11.258;2023-06-10T03:14:44;95279.34;;;18.78;72.94
25526;BME280;13424;48.424;11.258;2023-06-10T03:17:10;95283.38;;;18.80;72.89
25526;BME280;13424;48.424;11.258;2023-06-10T03:19:38;95285.66;;;18.87;72.94
25526;BME280;13424;48.424;11.258;2023-06-10T03:22:13;95286.88;;;18.81;73.48
25526;BME280;13424;48.424;11.258;2023-06-10T03:28:51;95293.75;;;19.01;72.77
25526;BME280;13424;48.424;11.258;2023-06-10T03:31:19;95285.06;;;18.90;72.99
25526;BME280;13424;48.424;11.258;2023-06-10T03:33:45;95291.56;;;19.03;72.98
25526;BME280;13424;48.424;11.258;2023-06-10T03:36:11;95287.16;;;18.93;72.76
25526;BME280;13424;48.424;11.258;2023-06-10T03:38:37;95290.34;;;18.81;73.11
25526;BME280;13424;48.424;11.258;2023-06-10T03:41:06;95294.53;;;18.87;73.70
25526;BME280;13424;48.424;11.258;2023-06-10T03:43:33;95296.16;;;19.02;72.86
25526;BME280;13424;48.424;11.258;2023-06-10T03:45:59;95306.38;;;19.05;73.27
25526;BME280;13424;48.424;11.258;2023-06-10T03:48:25;95297.88;;;19.25;72.36
25526;BME280;13424;48.424;11.258;2023-06-10T03:50:52;95300.25;;;19.27;72.58
25526;BME280;13424;48.424;11.258;2023-06-10T03:53:20;95301.13;;;19.50;71.62
25526;BME280;13424;48.424;11.258;2023-06-10T03:55:46;95311.28;;;19.03;73.27
25526;BME280;13424;48.424;11.258;2023-06-10T03:58:14;95304.78;;;18.90;73.50
25526;BME280;13424;48.424;11.258;2023-06-10T04:00:42;95310.88;;;18.82;73.88
25526;BME280;13424;48.424;11.258;2023-06-10T04:03:08;95308.59;;;19.31;72.63
25526;BME280;13424;48.424;11.258;2023-06-10T04:05:39;95311.28;;;19.44;71.81
25526;BME280;13424;48.424;11.258;2023-06-10T04:08:05;95307.38;;;19.37;72.02
25526;BME280;13424;48.424;11.258;2023-06-10T04:10:32;95315.00;;;19.07;72.87
25526;BME280;13424;48.424;11.258;2023-06-10T04:12:59;95314.50;;;18.59;74.00
25526;BME280;13424;48.424;11.258;2023-06-10T04:15:30;95315.28;;;18.59;73.89
25526;BME280;13424;48.424;11.258;2023-06-10T04:17:59;95312.38;;;18.75;73.81
25526;BME280;13424;48.424;11.258;2023-06-10T04:20:27;95309.28;;;18.62;74.35
25526;BME280;13424;48.424;11.258;2023-06-10T04:23:22;95317.28;;;18.54;75.09
25526;BME280;13424;48.424;11.258;2023-06-10T04:25:48;95314.06;;;18.84;74.26
25526;BME280;13424;48.424;11.258;2023-06-10T04:28:14;95321.00;;;19.04;74.01
25526;BME280;13424;48.424;11.258;2023-06-10T04:30:41;95325.00;;;19.20;73.35
25526;BME280;13424;48.424;11.258;2023-06-10T04:33:07;95329.31;;;19.21;73.66
25526;BME280;13424;48.424;11.258;2023-06-10T04:35:35;95325.00;;;19.62;72.74
25526;BME280;13424;48.424;11.258;2023-06-10T04:38:02;95325.00;;;19.48;73.20
25526;BME280;13424;48.424;11.258;2023-06-10T04:40:29;95326.75;;;19.94;72.19
25526;BME280;13424;48.424;11.258;2023-06-10T04:42:55;95324.13;;;19.89;72.21
25526;BME280;13424;48.424;11.258;2023-06-10T04:45:21;95327.53;;;19.94;72.37
25526;BME280;13424;48.424;11.258;2023-06-10T04:47:47;95330.59;;;20.38;71.73
25526;BME280;13424;48.424;11.258;2023-06-10T04:50:13;95335.97;;;20.51;70.99
25526;BME280;13424;48.424;11.258;2023-06-10T04:52:40;95335.06;;;20.56;71.51
25526;BME280;13424;48.424;11.258;2023-06-10T04:55:07;95332.97;;;20.84;70.24
25526;BME280;13424;48.424;11.258;2023-06-10T04:57:34;95330.94;;;20.58;70.22
25526;BME280;13424;48.424;11.258;2023-06-10T05:00:00;95333.66;;;20.89;69.75
25526;BME280;13424;48.424;11.258;2023-06-10T05:02:26;95333.78;;;20.84;70.36
25526;BME280;13424;48.424;11.258;2023-06-10T05:04:57;95333.22;;;20.96;69.74
25526;BME280;13424;48.424;11.258;2023-06-10T05:07:23;95340.59;;;20.73;70.16
25526;BME280;13424;48.424;11.258;2023-06-10T05:09:49;95345.88;;;20.78;71.23
25526;BME280;13424;48.424;11.258;2023-06-10T05:12:15;95350.69;;;20.81;69.78
25526;BME280;13424;48.424;11.258;2023-06-10T05:14:41;95339.31;;;21.02;68.86
25526;BME280;13424;48.424;11.258;2023-06-10T05:17:06;95355.47;;;21.15;68.71
25526;BME280;13424;48.424;11.258;2023-06-10T05:19:32;95354.13;;;23.05;63.83
25526;BME280;13424;48.424;11.258;2023-06-10T05:22:01;95361.13;;;25.41;57.97
25526;BME280;13424;48.424;11.258;2023-06-10T05:24:28;95355.00;;;24.65;58.73
25526;BME280;13424;48.424;11.258;2023-06-10T05:26:54;95352.31;;;23.64;60.73
25526;BME280;13424;48.424;11.258;2023-06-10T05:29:19;95351.47;;;24.98;58.21
25526;BME280;13424;48.424;11.258;2023-06-10T05:31:45;95355.63;;;23.79;61.37
25526;BME280;13424;48.424;11.258;2023-06-10T05:34:13;95351.25;;;23.48;61.33
25526;BME280;13424;48.424;11.258;2023-06-10T05:36:38;95350.78;;;23.08;62.69
25526;BME280;13424;48.424;11.258;2023-06-10T05:39:04;95360.72;;;22.95;64.20
25526;BME280;13424;48.424;11.258;2023-06-10T05:41:30;95356.41;;;22.94;64.03
25526;BME280;13424;48.424;11.258;2023-06-10T05:43:56;95363.31;;;22.31;66.12
25526;BME280;13424;48.424;11.258;2023-06-10T05:46:22;95354.94;;;22.01;66.46
25526;BME280;13424;48.424;11.258;2023-06-10T05:48:48;95360.91;;;22.38;65.57
25526;BME280;13424;48.424;11.258;2023-06-10T05:51:13;95353.47;;;21.78;67.71
25526;BME280;13424;48.424;11.258;2023-06-10T05:53:40;95360.41;;;22.10;67.70
25526;BME280;13424;48.424;11.258;2023-06-10T05:56:06;95356.28;;;22.30;67.08
25526;BME280;13424;48.424;11.258;2023-06-10T05:58:32;95359.47;;;22.15;67.02
25526;BME280;13424;48.424;11.258;2023-06-10T06:00:58;95360.38;;;22.01;67.57
25526;BME280;13424;48.424;11.258;2023-06-10T06:07:30;95353.09;;;22.45;67.03
25526;BME280;13424;48.424;11.258;2023-06-10T06:09:56;95352.44;;;22.31;67.89
25526;BME280;13424;48.424;11.258;2023-06-10T06:12:22;95354.50;;;22.43;67.27
25526;BME280;13424;48.424;11.258;2023-06-10T06:14:48;95361.59;;;21.69;69.15
25526;BME280;13424;48.424;11.258;2023-06-10T06:17:14;95357.38;;;22.55;67.62
25526;BME280;13424;48.424;11.258;2023-06-10T06:19:40;95360.75;;;22.61;67.45
25526;BME280;13424;48.424;11.258;2023-06-10T06:22:06;95362.31;;;22.79;65.44
25526;BME280;13424;48.424;11.258;2023-06-10T06:24:32;95359.28;;;22.89;66.25
25526;BME280;13424;48.424;11.258;2023-06-10T06:26:57;95356.97;;;23.55;65.56
25526;BME280;13424;48.424;11.258;2023-06-10T06:29:23;95363.25;;;23.47;64.92
25526;BME280;13424;48.424;11.258;2023-06-10T06:31:50;95359.19;;;23.24;65.28
25526;BME280;13424;48.424;11.258;2023-06-10T06:34:16;95370.38;;;23.22;65.44
25526;BME280;13424;48.424;11.258;2023-06-10T06:36:42;95360.22;;;23.49;63.72
25526;BME280;13424;48.424;11.258;2023-06-10T06:43:14;95363.91;;;23.44;64.21
25526;BME280;13424;48.424;11.258;2023-06-10T06:45:58;95367.72;;;24.32;62.71
25526;BME280;13424;48.424;11.258;2023-06-10T06:48:24;95366.28;;;24.13;63.24
25526;BME280;13424;48.424;11.258;2023-06-10T06:50:50;95373.56;;;24.01;65.46
25526;BME280;13424;48.424;11.258;2023-06-10T06:53:16;95368.25;;;24.04;63.53
25526;BME280;13424;48.424;11.258;2023-06-10T06:55:43;95372.91;;;23.74;63.67
25526;BME280;13424;48.424;11.258;2023-06-10T06:58:08;95376.38;;;24.13;62.49
25526;BME280;13424;48.424;11.258;2023-06-10T07:00:34;95380.63;;;23.72;63.55
25526;BME280;13424;48.424;11.258;2023-06-10T07:03:00;95381.50;;;23.85;62.68
25526;BME280;13424;48.424;11.258;2023-06-10T07:05:27;95378.34;;;24.87;61.57
25526;BME280;13424;48.424;11.258;2023-06-10T07:07:53;95379.34;;;24.49;62.51
25526;BME280;13424;48.424;11.258;2023-06-10T07:10:28;95381.59;;;24.68;60.82
25526;BME280;13424;48.424;11.258;2023-06-10T07:12:54;95383.06;;;24.66;61.14
25526;BME280;13424;48.424;11.258;2023-06-10T07:15:20;95379.81;;;24.85;62.20
25526;BME280;13424;48.424;11.258;2023-06-10T07:17:46;95385.53;;;25.13;59.81
25526;BME280;13424;48.424;11.258;2023-06-10T07:20:12;95396.31;;;25.09;60.33
25526;BME280;13424;48.424;11.258;2023-06-10T07:22:38;95397.00;;;25.18;62.54
25526;BME280;13424;48.424;11.258;2023-06-10T07:25:07;95394.72;;;25.08;59.16
25526;BME280;13424;48.424;11.258;2023-06-10T07:27:33;95389.59;;;24.86;59.09
25526;BME280;13424;48.424;11.258;2023-06-10T07:29:59;95394.50;;;25.13;61.33
25526;BME280;13424;48.424;11.258;2023-06-10T07:32:26;95396.28;;;24.76;60.69
25526;BME280;13424;48.424;11.258;2023-06-10T07:34:52;95390.78;;;25.30;58.65
25526;BME280;13424;48.424;11.258;2023-06-10T07:37:18;95398.38;;;25.24;58.53
25526;BME280;13424;48.424;11.258;2023-06-10T07:39:45;95395.97;;;25.68;57.97
25526;BME280;13424;48.424;11.258;2023-06-10T07:42:11;95393.69;;;25.70;57.78
25526;BME280;13424;48.424;11.258;2023-06-10T07:44:36;95389.91;;;25.50;58.54
25526;BME280;13424;48.424;11.258;2023-06-10T07:47:02;95383.88;;;25.57;57.78
25526;BME280;13424;48.424;11.258;2023-06-10T07:49:28;95389.56;;;24.73;60.22
25526;BME280;13424;48.424;11.258;2023-06-10T07:51:55;95386.53;;;25.08;58.40
25526;BME280;13424;48.424;11.258;2023-06-10T07:54:21;95383.19;;;25.48;57.99
25526;BME280;13424;48.424;11.258;2023-06-10T07:56:47;95378.00;;;25.92;58.95
25526;BME280;13424;48.424;11.258;2023-06-10T07:59:14;95379.84;;;26.52;57.29
25526;BME280;13424;48.424;11.258;2023-06-10T08:01:40;95383.69;;;25.04;58.55
25526;BME280;13424;48.424;11.258;2023-06-10T08:04:06;95381.75;;;25.17;59.03
25526;BME280;13424;48.424;11.258;2023-06-10T08:09:57;95382.97;;;25.65;57.72
25526;BME280;13424;48.424;11.258;2023-06-10T08:12:23;95386.56;;;25.32;56.79
25526;BME280;13424;48.424;11.258;2023-06-10T08:14:49;95386.09;;;25.76;57.57
25526;BME280;13424;48.424;11.258;2023-06-10T08:17:15;95383.22;;;25.97;55.99
25526;BME280;13424;48.424;11.258;2023-06-10T08:19:41;95391.91;;;26.91;55.09
25526;BME280;13424;48.424;11.258;2023-06-10T08:22:06;95383.97;;;26.46;57.50
25526;BME280;13424;48.424;11.258;2023-06-10T08:24:33;95389.44;;;26.22;55.88
25526;BME280;13424;48.424;11.258;2023-06-10T08:26:59;95385.00;;;26.82;54.01
25526;BME280;13424;48.424;11.258;2023-06-10T08:29:26;95384.22;;;28.20;51.89
25526;BME280;13424;48.424;11.258;2023-06-10T08:31:52;95387.44;;;27.27;55.92
25526;BME280;13424;48.424;11.258;2023-06-10T08:34:18;95387.94;;;28.12;52.51
25526;BME280;13424;48.424;11.258;2023-06-10T08:36:44;95392.22;;;27.62;53.45
25526;BME280;13424;48.424;11.258;2023-06-10T08:39:11;95397.34;;;27.04;53.26
25526;BME280;13424;48.424;11.258;2023-06-10T08:41:41;95390.81;;;26.80;54.69
25526;BME280;13424;48.424;11.258;2023-06-10T08:44:17;95394.81;;;26.06;55.93
25526;BME280;13424;48.424;11.258;2023-06-10T08:46:47;95395.25;;;26.32;56.38
25526;BME280;13424;48.424;11.258;2023-06-10T08:49:18;95396.72;;;26.30;55.49
25526;BME280;13424;48.424;11.258;2023-06-10T08:51:50;95395.28;;;26.20;55.38
25526;BME280;13424;48.424;11.258;2023-06-10T08:54:20;95391.03;;;26.35;56.72
25526;BME280;13424;48.424;11.258;2023-06-10T08:56:49;95394.78;;;26.55;54.95
25526;BME280;13424;48.424;11.258;2023-06-10T08:59:17;95389.22;;;26.79;54.87
25526;BME280;13424;48.424;11.258;2023-06-10T09:01:44;95377.00;;;26.36;56.82
25526;BME280;13424;48.424;11.258;2023-06-10T09:04:10;95378.47;;;27.14;54.61
25526;BME280;13424;48.424;11.258;2023-06-10T09:06:35;95383.78;;;27.67;53.14
25526;BME280;13424;48.424;11.258;2023-06-10T09:09:02;95381.34;;;27.34;53.22
25526;BME280;13424;48.424;11.258;2023-06-10T09:11:28;95382.09;;;26.90;53.88
25526;BME280;13424;48.424;11.258;2023-06-10T09:13:54;95386.41;;;27.04;54.65
25526;BME280;13424;48.424;11.258;2023-06-10T09:16:20;95375.25;;;26.96;53.27
25526;BME280;13424;48.424;11.258;2023-06-10T09:18:46;95375.78;;;26.74;54.30
25526;BME280;13424;48.424;11.258;2023-06-10T09:21:12;95378.59;;;27.18;55.09
25526;BME280;13424;48.424;11.258;2023-06-10T09:23:38;95377.91;;;27.52;54.65
25526;BME280;13424;48.424;11.258;2023-06-10T09:26:08;95377.34;;;27.31;55.12
25526;BME280;13424;48.424;11.258;2023-06-10T09:28:35;95374.44;;;26.96;53.97
25526;BME280;13424;48.424;11.258;2023-06-10T09:31:04;95369.06;;;26.43;56.60
25526;BME280;13424;48.424;11.258;2023-06-10T09:33:31;95375.88;;;26.37;55.87
25526;BME280;13424;48.424;11.258;2023-06-10T09:35:57;95370.78;;;27.04;53.79
25526;BME280;13424;48.424;11.258;2023-06-10T09:38:31;95379.09;;;28.34;51.15
25526;BME280;13424;48.424;11.258;2023-06-10T09:40:57;95379.28;;;28.09;52.74
25526;BME280;13424;48.424;11.258;2023-06-10T09:43:38;95378.59;;;28.13;53.66
25526;BME280;13424;48.424;11.258;2023-06-10T09:46:04;95382.47;;;28.12;51.79
25526;BME280;13424;48.424;11.258;2023-06-10T09:48:34;95376.16;;;28.62;48.89
25526;BME280;13424;48.424;11.258;2023-06-10T09:51:00;95385.06;;;28.04;51.91
25526;BME280;13424;48.424;11.258;2023-06-10T09:53:26;95385.00;;;27.69;51.01
25526;BME280;13424;48.424;11.258;2023-06-10T09:55:52;95379.50;;;26.54;53.95
25526;BME280;13424;48.424;11.258;2023-06-10T09:58:18;95378.00;;;25.79;55.34
25526;BME280;13424;48.424;11.258;2023-06-10T10:00:43;95388.53;;;26.82;53.07
25526;BME280;13424;48.424;11.258;2023-06-10T10:03:22;95380.75;;;26.84;54.75
25526;BME280;13424;48.424;11.258;2023-06-10T10:05:48;95386.91;;;26.53;55.80
25526;BME280;13424;48.424;11.258;2023-06-10T10:08:14;95389.22;;;26.79;53.95
25526;BME280;13424;48.424;11.258;2023-06-10T10:10:39;95387.16;;;26.76;54.69
25526;BME280;13424;48.424;11.258;2023-06-10T10:13:05;95389.50;;;26.62;55.11
25526;BME280;13424;48.424;11.258;2023-06-10T10:15:32;95391.88;;;27.04;55.08
25526;BME280;13424;48.424;11.258;2023-06-10T10:18:14;95390.47;;;27.69;53.66
25526;BME280;13424;48.424;11.258;2023-06-10T10:20:48;95382.56;;;27.20;52.99
25526;BME280;13424;48.424;11.258;2023-06-10T10:23:20;95381.16;;;28.05;51.50
25526;BME280;13424;48.424;11.258;2023-06-10T10:25:52;95389.88;;;27.32;54.33
25526;BME280;13424;48.424;11.258;2023-06-10T10:28:21;95384.78;;;26.47;53.13
25526;BME280;13424;48.424;11.258;2023-06-10T10:30:54;95388.59;;;26.86;54.45
25526;BME280;13424;48.424;11.258;2023-06-10T10:36:06;95390.97;;;27.43;55.79
25526;BME280;13424;48.424;11.258;2023-06-10T10:38:33;95389.75;;;27.88;53.02
25526;BME280;13424;48.424;11.258;2023-06-10T10:44:42;95389.63;;;27.21;53.92
25526;BME280;13424;48.424;11.258;2023-06-10T10:47:08;95388.59;;;27.42;54.18
25526;BME280;13424;48.424;11.258;2023-06-10T10:49:37;95385.50;;;27.43;55.45
25526;BME280;13424;48.424;11.258;2023-06-10T10:52:04;95385.31;;;27.36;57.49
25526;BME280;13424;48.424;11.258;2023-06-10T10:54:35;95385.44;;;26.84;55.15
25526;BME280;13424;48.424;11.258;2023-06-10T10:57:15;95390.69;;;27.33;55.34
25526;BME280;13424;48.424;11.258;2023-06-10T10:59:58;95384.94;;;27.22;54.38
25526;BME280;13424;48.424;11.258;2023-06-10T11:02:34;95384.22;;;27.25;55.75
25526;BME280;13424;48.424;11.258;2023-06-10T11:05:01;95382.06;;;27.03;54.90
25526;BME280;13424;48.424;11.258;2023-06-10T11:07:31;95378.66;;;26.93;54.97
25526;BME280;13424;48.424;11.258;2023-06-10T11:10:13;95383.44;;;27.24;54.00
25526;BME280;13424;48.424;11.258;2023-06-10T11:15:13;95379.09;;;25.54;57.07
25526;BME280;13424;48.424;11.258;2023-06-10T11:18:10;95384.56;;;25.66;57.49
25526;BME280;13424;48.424;11.258;2023-06-10T11:20:59;95388.59;;;25.93;56.05
25526;BME280;13424;48.424;11.258;2023-06-10T11:31:24;95400.28;;;25.69;56.70
25526;BME280;13424;48.424;11.258;2023-06-10T11:33:56;95401.09;;;26.06;57.52
25526;BME280;13424;48.424;11.258;2023-06-10T11:36:23;95400.97;;;25.91;56.90
25526;BME280;13424;48.424;11.258;2023-06-10T11:38:53;95399.56;;;25.48;57.24
25526;BME280;13424;48.424;11.258;2023-06-10T11:41:20;95396.84;;;25.48;56.84
25526;BME280;13424;48.424;11.258;2023-06-10T11:43:46;95394.94;;;25.60;56.98
25526;BME280;13424;48.424;11.258;2023-06-10T11:46:14;95392.34;;;25.76;57.41
25526;BME280;13424;48.424;11.258;2023-06-10T11:48:57;95395.84;;;25.89;56.84
25526;BME280;13424;48.424;11.258;2023-06-10T11:51:27;95397.22;;;25.95;57.10
25526;BME280;13424;48.424;11.258;2023-06-10T11:53:53;95399.63;;;25.97;56.83
25526;BME280;13424;48.424;11.258;2023-06-10T11:56:24;95395.88;;;26.01;56.52
25526;BME280;13424;48.424;11.258;2023-06-10T11:58:58;95392.66;;;25.63;56.56
25526;BME280;13424;48.424;11.258;2023-06-10T12:01:26;95384.22;;;25.55;56.39
25526;BME280;13424;48.424;11.258;2023-06-10T12:04:07;95393.41;;;25.51;55.96
25526;BME280;13424;48.424;11.258;2023-06-10T12:06:49;95392.75;;;25.66;56.84
25526;BME280;13424;48.424;11.258;2023-06-10T12:09:26;95387.31;;;26.03;55.42
25526;BME280;13424;48.424;11.258;2023-06-10T12:12:02;95388.53;;;26.30;54.54
25526;BME280;13424;48.424;11.258;2023-06-10T12:14:57;95387.91;;;26.08;56.11
25526;BME280;13424;48.424;11.258;2023-06-10T12:20:07;95378.94;;;26.88;53.88
25526;BME280;13424;48.424;11.258;2023-06-10T12:22:43;95380.72;;;26.16;54.69
25526;BME280;13424;48.424;11.258;2023-06-10T12:25:10;95377.25;;;26.43;55.09
25526;BME280;13424;48.424;11.258;2023-06-10T12:27:37;95381.16;;;26.70;55.95
25526;BME280;13424;48.424;11.258;2023-06-10T12:30:05;95377.66;;;26.86;54.61
25526;BME280;13424;48.424;11.258;2023-06-10T12:32:45;95379.97;;;26.84;53.92
25526;BME280;13424;48.424;11.258;2023-06-10T12:35:17;95379.41;;;27.34;53.54
25526;BME280;13424;48.424;11.258;2023-06-10T12:40:41;95376.84;;;28.04;51.29
25526;BME280;13424;48.424;11.258;2023-06-10T12:43:07;95378.63;;;27.49;53.99
25526;BME280;13424;48.424;11.258;2023-06-10T12:45:37;95371.84;;;26.59;54.57
25526;BME280;13424;48.424;11.258;2023-06-10T12:48:20;95358.81;;;26.28;54.75
25526;BME280;13424;48.424;11.258;2023-06-10T12:50:57;95365.38;;;26.52;54.17
25526;BME280;13424;48.424;11.258;2023-06-10T12:53:25;95361.59;;;26.16;53.78
25526;BME280;13424;48.424;11.258;2023-06-10T12:55:54;95354.25;;;26.44;53.71
25526;BME280;13424;48.424;11.258;2023-06-10T12:58:21;95349.69;;;26.36;55.56
25526;BME280;13424;48.424;11.258;2023-06-10T13:00:47;95349.25;;;26.47;53.89
25526;BME280;13424;48.424;11.258;2023-06-10T13:03:14;95352.63;;;26.56;53.37
25526;BME280;13424;48.424;11.258;2023-06-10T13:05:40;95352.25;;;26.85;52.76
25526;BME280;13424;48.424;11.258;2023-06-10T13:08:08;95343.44;;;27.20;53.93
25526;BME280;13424;48.424;11.258;2023-06-10T13:10:39;95340.94;;;27.15;53.18
25526;BME280;13424;48.424;11.258;2023-06-10T13:13:04;95346.16;;;27.04;53.14
25526;BME280;13424;48.424;11.258;2023-06-10T13:15:39;95339.56;;;27.21;53.58
25526;BME280;13424;48.424;11.258;2023-06-10T13:18:05;95339.13;;;27.35;51.95
25526;BME280;13424;48.424;11.258;2023-06-10T13:20:31;95337.53;;;27.97;50.63
25526;BME280;13424;48.424;11.258;2023-06-10T13:22:58;95331.03;;;28.59;49.39
25526;BME280;13424;48.424;11.258;2023-06-10T13:25:24;95334.50;;;28.37;50.02
25526;BME280;13424;48.424;11.258;2023-06-10T13:27:50;95339.72;;;29.69;49.73
25526;BME280;13424;48.424;11.258;2023-06-10T13:30:16;95332.75;;;30.01;48.90
25526;BME280;13424;48.424;11.258;2023-06-10T13:32:42;95338.75;;;29.81;47.87
25526;BME280;13424;48.424;11.258;2023-06-10T13:35:08;95339.16;;;29.14;49.02
25526;BME280;13424;48.424;11.258;2023-06-10T13:37:34;95340.56;;;29.04;49.13
25526;BME280;13424;48.424;11.258;2023-06-10T13:40:01;95342.56;;;29.50;48.14
25526;BME280;13424;48.424;11.258;2023-06-10T13:42:27;95334.66;;;29.48;47.19
25526;BME280;13424;48.424;11.258;2023-06-10T13:44:54;95330.47;;;28.31;51.75
25526;BME280;13424;48.424;11.258;2023-06-10T13:52:07;95315.78;;;29.69;47.37